首页
METAR-TAF:

METAR-TAF

机场 :

凯奇凯梅特, 匈牙利

纬度: 46-55N, 经度: 019-45E, 海拔: 113米

当前天气观测

该预报发布于47分钟前的06:45 UTC
风速4节,风向西
温度 22°C
湿度 78%
气压 1012 hPa
能见度10公里或以上
1500米以下无云,无积雨云

METAR: LHKE 150645Z 26004KT CAVOK 22/18 Q1012 R12/01//95 NOSIG RMK BLU

时间: 09:32 (07:32 UTC)

预报

该预报发布于2小时和17分钟前的05:15 UTC
预报有效从15日的 06点(UTC)到 15日的 15点(UTC)
风速3节,风向多变
能见度10公里或以上
1500米以下无云,无积雨云
成为
从 15日的 07点(UTC)到 15日的 10点(UTC)
能见度10公里或以上
散云层高于3000英尺
散云层高于8000英尺
几率 30% :
短暂存在
从 15日的 11点(UTC)到 15日的 15点(UTC)
风速16节,风向多变,有时为26节阵风
能見度: 6000
散云层高于3000英尺, 积雨云.
多云层高于4000英尺
阵雨, 雷暴, 雨

TAF: LHKE 150515Z 1506/1515 VRB03KT CAVOK BECMG 1507/1510 9999 SCT030 SCT080 PROB30 TEMPO 1511/1515 VRB16G26KT 6000 SHRA TSRA SCT030CB BKN040

超过4000个机场的气象观测和天气预报(METAR&TAF报告)。

可查询的气象台以黄色和红色小点在地图上表示。

将鼠标移到小点上方,可查看气象台名称。

然后点击查看天气观测和预报。

如需切换地图:点击带黑十字的绿色按钮放大地图;点击带横线的绿色按钮缩小地图;或者点击绿色箭头查看邻近地区的地图。


METAR-TAF: